Time;durP1;ratioP1;P1;durP2;ratioP2;P2;SDS_P1;SDS_P2;PMS_P1;PMS_P2;Temp;Humidity;BMP_temperature;BMP_pressure;BME280_temperature;BME280_humidity;BME280_pressure;Samples;Min_cycle;Max_cycle;Signal;HPM_P1;HPM_P2
2021/06/27 00:01:23;;;;;;;;;;;;;;;14.10;100.00;101183.19;5072428;28;19975;-72
2021/06/27 00:03:52;;;;;;;;;;;;;;;14.04;100.00;101179.09;5072326;28;20061;-72
2021/06/27 00:06:18;;;;;;;;;;;;;;;13.98;100.00;101179.66;5072186;28;20022;-72
2021/06/27 00:08:45;;;;;;;;;;;;;;;13.92;100.00;101191.97;5072051;28;20387;-72
2021/06/27 00:11:12;;;;;;;;;;;;;;;13.92;100.00;101186.50;5072141;28;20336;-72
2021/06/27 00:13:39;;;;;;;;;;;;;;;13.87;100.00;101180.63;5072308;28;20019;-72
2021/06/27 00:16:06;;;;;;;;;;;;;;;13.84;100.00;101178.16;5072112;28;20001;-72
2021/06/27 00:18:33;;;;;;;;;;;;;;;13.79;100.00;101184.03;5071873;28;20022;-72
2021/06/27 00:21:04;;;;;;;;;;;;;;;13.77;100.00;101186.00;5071935;28;19924;-72
2021/06/27 00:23:31;;;;;;;;;;;;;;;13.79;100.00;101181.28;5072098;28;19968;-73
2021/06/27 00:25:58;;;;;;;;;;;;;;;13.78;100.00;101184.16;5071721;28;20410;-73
2021/06/27 00:28:24;;;;;;;;;;;;;;;13.74;100.00;101183.56;5071742;28;20347;-70
2021/06/27 00:30:53;;;;;;;;;;;;;;;13.70;100.00;101187.56;5071792;28;20015;-71
2021/06/27 00:33:20;;;;;;;;;;;;;;;13.65;100.00;101176.16;5071659;28;19929;-72
2021/06/27 00:35:46;;;;;;;;;;;;;;;13.60;100.00;101168.38;5054056;28;19924;-72
2021/06/27 00:38:14;;;;;;;;;;;;;;;13.55;100.00;101163.34;5071305;28;19964;-73
2021/06/27 00:40:41;;;;;;;;;;;;;;;13.50;100.00;101178.38;5071739;28;20339;-72
2021/06/27 00:43:07;;;;;;;;;;;;;;;13.46;100.00;101175.03;5071546;28;19947;-72
2021/06/27 00:45:35;;;;;;;;;;;;;;;13.40;100.00;101172.81;5071505;28;19924;-70
2021/06/27 00:48:02;;;;;;;;;;;;;;;13.34;100.00;101168.75;5071364;28;19935;-70
2021/06/27 00:50:29;;;;;;;;;;;;;;;13.26;100.00;101175.88;5071672;28;20045;-72
2021/06/27 00:52:56;;;;;;;;;;;;;;;13.19;100.00;101176.38;5071681;28;19924;-71
2021/06/27 00:55:24;;;;;;;;;;;;;;;13.12;100.00;101172.47;5071235;28;20053;-71
2021/06/27 00:57:51;;;;;;;;;;;;;;;13.07;100.00;101180.16;5071398;28;20019;-72
2021/06/27 01:00:20;;;;;;;;;;;;;;;13.02;100.00;101185.13;5071507;28;20027;-73
2021/06/27 01:02:47;;;;;;;;;;;;;;;12.97;100.00;101185.50;5071642;28;19967;-72
2021/06/27 01:05:15;;;;;;;;;;;;;;;12.90;100.00;101178.84;5071477;28;20015;-73
2021/06/27 01:07:41;;;;;;;;;;;;;;;12.89;100.00;101177.09;5071092;28;20442;-73
2021/06/27 01:10:09;;;;;;;;;;;;;;;12.81;100.00;101161.41;5071443;28;20030;-72
2021/06/27 01:12:36;;;;;;;;;;;;;;;12.76;100.00;101166.41;5071697;28;19967;-72
2021/06/27 01:15:04;;;;;;;;;;;;;;;12.72;100.00;101165.78;5071191;28;20015;-72
2021/06/27 01:17:30;;;;;;;;;;;;;;;12.74;100.00;101168.38;5053217;28;20023;-72
2021/06/27 01:19:56;;;;;;;;;;;;;;;12.75;100.00;101169.22;5071294;28;20342;-72
2021/06/27 01:22:25;;;;;;;;;;;;;;;12.69;100.00;101171.50;5071370;28;20469;-74
2021/06/27 01:24:51;;;;;;;;;;;;;;;12.56;100.00;101165.34;5071158;28;19928;-72
2021/06/27 01:27:19;;;;;;;;;;;;;;;12.41;100.00;101167.44;5070772;28;20406;-72
2021/06/27 01:29:45;;;;;;;;;;;;;;;12.34;100.00;101169.78;5071153;28;20002;-73
2021/06/27 01:32:12;;;;;;;;;;;;;;;12.32;100.00;101165.47;5071146;28;19981;-72
2021/06/27 01:34:39;;;;;;;;;;;;;;;12.26;100.00;101166.84;5071279;28;19924;-73
2021/06/27 01:37:05;;;;;;;;;;;;;;;12.21;100.00;101161.78;5070878;28;19924;-71
2021/06/27 01:39:33;;;;;;;;;;;;;;;12.16;100.00;101164.00;5071179;28;19928;-71
2021/06/27 01:42:00;;;;;;;;;;;;;;;12.12;100.00;101154.38;5071168;28;19924;-71
2021/06/27 01:44:26;;;;;;;;;;;;;;;12.11;100.00;101152.63;5071249;28;19978;-71
2021/06/27 01:46:55;;;;;;;;;;;;;;;12.15;100.00;101156.84;5071438;28;19925;-72
2021/06/27 01:49:21;;;;;;;;;;;;;;;12.07;100.00;101151.16;5072715;28;20593;-71
2021/06/27 01:51:48;;;;;;;;;;;;;;;12.05;100.00;101144.94;5071141;28;19933;-73
2021/06/27 01:54:14;;;;;;;;;;;;;;;12.00;100.00;101142.63;5073049;28;19982;-72
2021/06/27 01:56:42;;;;;;;;;;;;;;;12.00;100.00;101150.78;5074833;28;20329;-72
2021/06/27 01:59:09;;;;;;;;;;;;;;;11.99;100.00;101145.47;5074579;28;19960;-72
2021/06/27 02:01:36;;;;;;;;;;;;;;;11.91;100.00;101139.75;5074803;28;19924;-72
2021/06/27 02:04:03;;;;;;;;;;;;;;;11.81;100.00;101135.03;5074684;28;19971;-72
2021/06/27 02:06:30;;;;;;;;;;;;;;;11.72;100.00;101136.63;5074477;28;19928;-72
2021/06/27 02:08:58;;;;;;;;;;;;;;;11.64;100.00;101136.38;5074453;28;19997;-73
2021/06/27 02:11:25;;;;;;;;;;;;;;;11.61;100.00;101142.06;5074511;28;19931;-72
2021/06/27 02:13:54;;;;;;;;;;;;;;;11.60;100.00;101136.72;5074630;28;19924;-72
2021/06/27 02:16:20;;;;;;;;;;;;;;;11.55;100.00;101147.97;5074568;28;19970;-72
2021/06/27 02:18:48;;;;;;;;;;;;;;;11.50;100.00;101142.88;5074170;28;19978;-73
2021/06/27 02:21:16;;;;;;;;;;;;;;;11.46;100.00;101144.13;5074317;28;20047;-72
2021/06/27 02:23:42;;;;;;;;;;;;;;;11.41;100.00;101140.03;5074249;28;19928;-72
2021/06/27 02:26:09;;;;;;;;;;;;;;;11.36;100.00;101145.84;5074121;28;19925;-73
2021/06/27 02:28:35;;;;;;;;;;;;;;;11.28;100.00;101142.88;5074016;28;20295;-72
2021/06/27 02:31:04;;;;;;;;;;;;;;;11.22;100.00;101147.78;5056154;28;19956;-71
2021/06/27 02:33:30;;;;;;;;;;;;;;;11.19;100.00;101152.59;5074328;28;19977;-72
2021/06/27 02:35:57;;;;;;;;;;;;;;;11.15;100.00;101151.94;5074004;28;19929;-72
2021/06/27 02:38:23;;;;;;;;;;;;;;;11.11;100.00;101145.03;5055935;28;19978;-72
2021/06/27 02:40:50;;;;;;;;;;;;;;;11.09;100.00;101135.25;5074027;28;19944;-72
2021/06/27 02:43:17;;;;;;;;;;;;;;;11.07;100.00;101138.09;5073917;28;19930;-72
2021/06/27 02:45:44;;;;;;;;;;;;;;;11.09;100.00;101136.13;5074191;28;19924;-71
2021/06/27 02:48:11;;;;;;;;;;;;;;;11.07;100.00;101132.66;5073422;28;19952;-72
2021/06/27 02:50:39;;;;;;;;;;;;;;;11.03;100.00;101133.88;5073778;28;20441;-72
2021/06/27 02:53:06;;;;;;;;;;;;;;;10.99;100.00;101130.53;5073418;28;20399;-72
2021/06/27 02:55:32;;;;;;;;;;;;;;;10.96;100.00;101132.63;5073637;28;19966;-72
2021/06/27 02:57:58;;;;;;;;;;;;;;;10.94;100.00;101134.59;5073460;28;19947;-72
2021/06/27 03:00:25;;;;;;;;;;;;;;;10.96;100.00;101135.34;5073507;28;19952;-72
2021/06/27 03:02:51;;;;;;;;;;;;;;;11.05;100.00;101134.66;5073946;28;20292;-72
2021/06/27 03:05:19;;;;;;;;;;;;;;;11.02;100.00;101127.59;5073074;28;19928;-72
2021/06/27 03:07:45;;;;;;;;;;;;;;;10.99;100.00;101132.38;5073125;28;19924;-72
2021/06/27 03:10:13;;;;;;;;;;;;;;;10.96;100.00;101132.63;5073448;28;19925;-72
2021/06/27 03:12:39;;;;;;;;;;;;;;;10.98;100.00;101130.66;5073384;28;19977;-72
2021/06/27 03:15:07;;;;;;;;;;;;;;;10.99;100.00;101132.38;5073151;28;19928;-72
2021/06/27 03:17:33;;;;;;;;;;;;;;;10.98;100.00;101136.97;5073062;28;19940;-72
2021/06/27 03:19:59;;;;;;;;;;;;;;;11.01;100.00;101139.44;5073220;28;20368;-71
2021/06/27 03:22:27;;;;;;;;;;;;;;;11.05;100.00;101140.94;5073026;28;19978;-72
2021/06/27 03:24:53;;;;;;;;;;;;;;;11.09;100.00;101149.72;5073172;28;20395;-72
2021/06/27 03:27:20;;;;;;;;;;;;;;;11.14;100.00;101152.06;5072901;28;20317;-72
2021/06/27 03:29:47;;;;;;;;;;;;;;;11.19;100.00;101158.88;5073168;28;19933;-72
2021/06/27 03:32:13;;;;;;;;;;;;;;;11.23;100.00;101164.94;5073020;28;19954;-72
2021/06/27 03:34:39;;;;;;;;;;;;;;;11.28;100.00;101159.19;5072869;28;19929;-72
2021/06/27 03:37:06;;;;;;;;;;;;;;;11.36;100.00;101154.00;5072632;28;20387;-72
2021/06/27 03:39:33;;;;;;;;;;;;;;;11.42;100.00;101148.06;5072801;28;19928;-72
2021/06/27 03:42:00;;;;;;;;;;;;;;;11.49;100.00;101148.44;5072723;28;19924;-72
2021/06/27 03:44:27;;;;;;;;;;;;;;;11.59;100.00;101154.06;5072537;28;19924;-72
2021/06/27 03:46:54;;;;;;;;;;;;;;;11.64;100.00;101146.41;5072489;28;20348;-72
2021/06/27 03:49:21;;;;;;;;;;;;;;;11.70;100.00;101152.22;5072830;28;19924;-72
2021/06/27 03:51:47;;;;;;;;;;;;;;;11.78;100.00;101142.56;5072519;28;19928;-72
2021/06/27 03:54:14;;;;;;;;;;;;;;;11.85;100.00;101150.13;5072899;28;20013;-72
2021/06/27 03:56:41;;;;;;;;;;;;;;;11.94;100.00;101143.06;5074159;28;19924;-72
2021/06/27 03:59:08;;;;;;;;;;;;;;;12.06;100.00;101154.84;5072238;28;19929;-72
2021/06/27 04:01:34;;;;;;;;;;;;;;;12.16;100.00;101153.13;5072511;28;19924;-72
2021/06/27 04:04:01;;;;;;;;;;;;;;;12.25;100.00;101158.81;5072287;28;19924;-72
2021/06/27 04:06:28;;;;;;;;;;;;;;;12.34;100.00;101150.75;5072287;28;19932;-72
2021/06/27 04:08:54;;;;;;;;;;;;;;;12.44;100.00;101153.59;5071939;28;19932;-72
2021/06/27 04:11:21;;;;;;;;;;;;;;;12.55;100.00;101150.84;5072208;28;19928;-72
2021/06/27 04:13:48;;;;;;;;;;;;;;;12.68;100.00;101147.97;5072103;28;19924;-73
2021/06/27 04:16:14;;;;;;;;;;;;;;;12.81;100.00;101145.06;5071652;28;19928;-72
2021/06/27 04:18:41;;;;;;;;;;;;;;;12.96;100.00;101150.22;5071929;28;19971;-72
2021/06/27 04:21:08;;;;;;;;;;;;;;;13.11;100.00;101146.19;5071859;28;19977;-72
2021/06/27 04:23:35;;;;;;;;;;;;;;;13.23;100.00;101144.28;5072035;28;20037;-72
2021/06/27 04:26:02;;;;;;;;;;;;;;;13.37;100.00;101148.56;5072054;28;20436;-72
2021/06/27 04:28:28;;;;;;;;;;;;;;;13.51;100.00;101148.25;5071564;28;19928;-72
2021/06/27 04:30:56;;;;;;;;;;;;;;;13.64;100.00;101149.88;5071873;28;20376;-72
2021/06/27 04:33:22;;;;;;;;;;;;;;;13.77;100.00;101142.34;5071713;28;19928;-72
2021/06/27 04:35:48;;;;;;;;;;;;;;;13.91;100.00;101143.88;5053813;28;19924;-72
2021/06/27 04:38:17;;;;;;;;;;;;;;;14.07;100.00;101146.94;5071356;28;19982;-72
2021/06/27 04:40:44;;;;;;;;;;;;;;;14.21;100.00;101142.97;5072062;28;19928;-72
2021/06/27 04:43:10;;;;;;;;;;;;;;;14.38;100.00;101133.25;5078816;28;20310;-71
2021/06/27 04:45:39;;;;;;;;;;;;;;;14.55;100.00;101129.00;5083324;28;19977;-72
2021/06/27 04:48:07;;;;;;;;;;;;;;;14.72;100.00;101141.13;5091323;28;19931;-73
2021/06/27 04:50:33;;;;;;;;;;;;;;;14.89;100.00;101131.34;5091054;28;19971;-72
2021/06/27 04:53:00;;;;;;;;;;;;;;;15.10;100.00;101132.22;5091768;28;19978;-72
2021/06/27 04:55:26;;;;;;;;;;;;;;;15.26;100.00;101135.25;5073257;28;19928;-72
2021/06/27 04:57:52;;;;;;;;;;;;;;;15.46;100.00;101127.88;5091386;28;19970;-72
2021/06/27 05:00:19;;;;;;;;;;;;;;;15.70;100.00;101127.38;5091565;28;19928;-72
2021/06/27 05:02:45;;;;;;;;;;;;;;;15.88;100.00;101126.63;5091557;28;20056;-72
2021/06/27 05:05:13;;;;;;;;;;;;;;;16.01;100.00;101131.78;5091587;28;20009;-72
2021/06/27 05:07:39;;;;;;;;;;;;;;;16.12;100.00;101134.31;5091159;28;19932;-71
2021/06/27 05:10:07;;;;;;;;;;;;;;;16.19;100.00;101129.09;5091542;28;19928;-72
2021/06/27 05:12:33;;;;;;;;;;;;;;;16.38;100.00;101131.72;5091826;28;19928;-72
2021/06/27 05:15:00;;;;;;;;;;;;;;;16.63;100.00;101132.00;5090709;28;19924;-72
2021/06/27 05:17:26;;;;;;;;;;;;;;;16.83;100.00;101132.72;5091047;28;19948;-72
2021/06/27 05:19:52;;;;;;;;;;;;;;;17.09;100.00;101125.63;5091301;28;19931;-72
2021/06/27 05:22:20;;;;;;;;;;;;;;;17.31;100.00;101122.38;5091101;28;19985;-72
2021/06/27 05:24:46;;;;;;;;;;;;;;;17.51;100.00;101119.47;5053231;28;19978;-73
2021/06/27 05:27:12;;;;;;;;;;;;;;;17.76;100.00;101123.22;5077994;28;19924;-72
2021/06/27 05:29:39;;;;;;;;;;;;;;;17.94;100.00;101112.19;5094462;28;19931;-73
2021/06/27 05:32:06;;;;;;;;;;;;;;;18.11;100.00;101118.63;5095418;28;19978;-73
2021/06/27 05:34:32;;;;;;;;;;;;;;;18.28;100.00;101115.94;5095598;28;19931;-73
2021/06/27 05:36:58;;;;;;;;;;;;;;;18.41;100.00;101113.59;5092981;28;19977;-73
2021/06/27 05:39:26;;;;;;;;;;;;;;;18.54;100.00;101111.22;5095331;28;19989;-73
2021/06/27 05:41:52;;;;;;;;;;;;;;;18.76;100.00;101114.38;5095193;28;20391;-72
2021/06/27 05:44:20;;;;;;;;;;;;;;;19.01;100.00;101112.56;5094622;28;19928;-73
2021/06/27 05:46:46;;;;;;;;;;;;;;;19.20;100.00;101115.97;5095047;28;19953;-73
2021/06/27 05:49:13;;;;;;;;;;;;;;;19.37;100.00;101116.84;5094884;28;19928;-73
2021/06/27 05:51:40;;;;;;;;;;;;;;;19.62;100.00;101106.66;5078459;28;19925;-73
2021/06/27 05:54:07;;;;;;;;;;;;;;;19.79;100.00;101104.72;5077418;28;19925;-73
2021/06/27 05:56:35;;;;;;;;;;;;;;;19.90;100.00;101111.78;5074563;28;20192;-73
2021/06/27 05:59:01;;;;;;;;;;;;;;;20.10;100.00;101103.13;5074525;28;19924;-73
2021/06/27 06:01:27;;;;;;;;;;;;;;;20.29;100.00;101101.81;5074595;28;19928;-73
2021/06/27 06:03:54;;;;;;;;;;;;;;;20.71;100.00;101097.81;5091721;28;20456;-73
2021/06/27 06:06:20;;;;;;;;;;;;;;;21.08;100.00;101093.41;5094437;28;19924;-73
2021/06/27 06:08:46;;;;;;;;;;;;;;;21.50;100.00;101094.75;5075867;28;19924;-74
2021/06/27 06:11:14;;;;;;;;;;;;;;;21.84;100.00;101090.59;5094313;28;19928;-73
2021/06/27 06:13:42;;;;;;;;;;;;;;;21.88;100.00;101094.69;5092528;28;19969;-72
2021/06/27 06:16:09;;;;;;;;;;;;;;;22.43;98.76;101097.16;5094481;28;20354;-72
2021/06/27 06:18:36;;;;;;;;;;;;;;;23.00;93.31;101097.38;5093969;28;19955;-73
2021/06/27 06:21:03;;;;;;;;;;;;;;;23.45;86.95;101099.91;5094554;28;20167;-72
2021/06/27 06:23:29;;;;;;;;;;;;;;;23.95;86.75;101103.47;5075589;28;19928;-72
2021/06/27 06:25:55;;;;;;;;;;;;;;;24.45;84.55;101116.31;5075980;28;19932;-72
2021/06/27 06:28:22;;;;;;;;;;;;;;;24.43;78.83;101119.28;5075670;28;20341;-72
2021/06/27 06:30:49;;;;;;;;;;;;;;;24.62;81.91;101122.34;5093700;28;19977;-72
2021/06/27 06:33:16;;;;;;;;;;;;;;;25.01;81.15;101115.22;5093905;28;19985;-72
2021/06/27 06:35:43;;;;;;;;;;;;;;;25.35;77.40;101110.59;5093812;28;19931;-72
2021/06/27 06:38:09;;;;;;;;;;;;;;;25.69;70.59;101103.06;5093498;28;19928;-72
2021/06/27 06:40:36;;;;;;;;;;;;;;;26.08;71.63;101112.41;5075504;28;19982;-72
2021/06/27 06:43:03;;;;;;;;;;;;;;;26.36;68.31;101106.56;5093810;28;19924;-73
2021/06/27 06:45:29;;;;;;;;;;;;;;;26.35;61.39;101109.53;5094059;28;19924;-72
2021/06/27 06:47:57;;;;;;;;;;;;;;;26.62;59.26;101101.94;5093309;28;19971;-72
2021/06/27 06:50:24;;;;;;;;;;;;;;;26.61;53.99;101102.16;5093683;28;20087;-72
2021/06/27 06:52:50;;;;;;;;;;;;;;;26.64;55.76;101107.28;5093909;28;20460;-72
2021/06/27 06:55:16;;;;;;;;;;;;;;;26.53;58.15;101104.09;5093344;28;19931;-72
2021/06/27 06:57:44;;;;;;;;;;;;;;;26.79;52.09;101105.09;5093720;28;19957;-72
2021/06/27 07:00:11;;;;;;;;;;;;;;;26.74;50.58;101107.69;5093201;28;20018;-72
2021/06/27 07:02:38;;;;;;;;;;;;;;;26.52;49.28;101115.47;5093130;28;20366;-72
2021/06/27 07:05:06;;;;;;;;;;;;;;;26.84;50.32;101110.81;5093593;28;19993;-72
2021/06/27 07:07:32;;;;;;;;;;;;;;;27.03;51.65;101099.75;5074800;28;19932;-72
2021/06/27 07:09:59;;;;;;;;;;;;;;;27.02;49.33;101100.88;5093560;28;19924;-72
2021/06/27 07:12:25;;;;;;;;;;;;;;;27.27;48.12;101100.88;5093259;28;19977;-72
2021/06/27 07:14:52;;;;;;;;;;;;;;;27.55;48.82;101110.72;5093466;28;20341;-72
2021/06/27 07:17:18;;;;;;;;;;;;;;;27.92;47.67;101105.22;5093010;28;19924;-72
2021/06/27 07:19:44;;;;;;;;;;;;;;;27.88;45.84;101117.94;5093222;28;19924;-72
2021/06/27 07:22:12;;;;;;;;;;;;;;;27.86;45.56;101109.78;5093087;28;19930;-73
2021/06/27 07:24:38;;;;;;;;;;;;;;;28.21;46.29;101114.78;5093277;28;19923;-72
2021/06/27 07:27:05;;;;;;;;;;;;;;;28.42;46.14;101107.00;5092863;28;19978;-72
2021/06/27 07:29:31;;;;;;;;;;;;;;;28.50;45.87;101103.06;5093090;28;19990;-72
2021/06/27 07:31:58;;;;;;;;;;;;;;;28.87;44.87;101095.47;5092828;28;19989;-72
2021/06/27 07:34:25;;;;;;;;;;;;;;;29.10;42.31;101091.03;5093157;28;19924;-72
2021/06/27 07:36:51;;;;;;;;;;;;;;;29.53;42.11;101091.84;5092591;28;19931;-72
2021/06/27 07:39:19;;;;;;;;;;;;;;;29.46;40.58;101089.16;5074942;28;20459;-72
2021/06/27 07:41:45;;;;;;;;;;;;;;;29.60;40.91;101098.19;5092829;28;19924;-72
2021/06/27 07:44:11;;;;;;;;;;;;;;;29.46;41.19;101097.53;5081191;28;19986;-72
2021/06/27 07:46:38;;;;;;;;;;;;;;;29.64;40.75;101096.59;5092737;28;20027;-73
2021/06/27 07:49:04;;;;;;;;;;;;;;;29.61;39.26;101090.63;5092255;28;19981;-73
2021/06/27 07:51:31;;;;;;;;;;;;;;;29.87;39.84;101087.34;5091933;28;19966;-72
2021/06/27 07:53:57;;;;;;;;;;;;;;;29.60;39.50;101094.50;5092430;28;19971;-73
2021/06/27 07:56:25;;;;;;;;;;;;;;;29.35;39.68;101093.66;5090789;28;19924;-73
2021/06/27 07:58:51;;;;;;;;;;;;;;;29.62;40.14;101086.75;5077754;28;20429;-72
2021/06/27 08:01:18;;;;;;;;;;;;;;;29.68;38.85;101096.97;5091779;28;19963;-73
2021/06/27 08:03:44;;;;;;;;;;;;;;;29.80;40.08;101089.41;5092420;28;20048;-72
2021/06/27 08:06:10;;;;;;;;;;;;;;;29.09;41.61;101078.16;5092079;28;19931;-73
2021/06/27 08:08:37;;;;;;;;;;;;;;;28.32;44.60;101085.25;5091773;28;19928;-72
2021/06/27 08:11:03;;;;;;;;;;;;;;;27.67;43.30;101089.41;5091945;28;20375;-72
2021/06/27 08:13:31;;;;;;;;;;;;;;;28.36;42.84;101082.84;5092158;28;19927;-72
2021/06/27 08:15:58;;;;;;;;;;;;;;;28.80;44.15;101074.31;5092149;28;20022;-72
2021/06/27 08:18:24;;;;;;;;;;;;;;;29.44;42.55;101070.94;5091525;28;19924;-73
2021/06/27 08:20:51;;;;;;;;;;;;;;;29.28;41.08;101069.72;5092030;28;19979;-72
2021/06/27 08:23:17;;;;;;;;;;;;;;;29.75;40.75;101071.66;5091625;28;19940;-72
2021/06/27 08:25:43;;;;;;;;;;;;;;;29.46;39.88;101068.75;5078202;28;19924;-72
2021/06/27 08:28:10;;;;;;;;;;;;;;;28.30;43.33;101058.66;5084808;28;19928;-73
2021/06/27 08:30:37;;;;;;;;;;;;;;;28.44;43.43;101065.78;5092022;28;19924;-72
2021/06/27 08:33:04;;;;;;;;;;;;;;;28.14;44.26;101060.16;5090925;28;19932;-73
2021/06/27 08:35:30;;;;;;;;;;;;;;;28.21;45.04;101056.19;5081118;28;19990;-72
2021/06/27 08:37:57;;;;;;;;;;;;;;;27.63;45.38;101065.00;5087937;28;19928;-73
2021/06/27 08:40:24;;;;;;;;;;;;;;;26.26;47.57;101060.78;5091721;28;20351;-73
2021/06/27 08:42:51;;;;;;;;;;;;;;;25.52;52.88;101067.41;5090462;28;19969;-72
2021/06/27 08:45:18;;;;;;;;;;;;;;;24.88;55.76;101057.72;5091815;28;20446;-72
2021/06/27 08:47:46;;;;;;;;;;;;;;;24.39;62.23;101065.28;5091315;28;20079;-72
2021/06/27 08:50:13;;;;;;;;;;;;;;;24.13;71.20;101061.38;5090920;28;20344;-72
2021/06/27 08:52:41;;;;;;;;;;;;;;;24.38;71.08;101066.34;5073875;28;20367;-72
2021/06/27 08:55:08;;;;;;;;;;;;;;;25.64;65.10;101063.94;5090770;28;19932;-72
2021/06/27 08:57:35;;;;;;;;;;;;;;;24.95;58.86;101078.03;5091177;28;19924;-72
2021/06/27 09:00:02;;;;;;;;;;;;;;;24.90;66.84;101072.28;5091174;28;19928;-72
2021/06/27 09:02:30;;;;;;;;;;;;;;;25.05;63.79;101072.94;5088875;28;20366;-72
2021/06/27 09:04:58;;;;;;;;;;;;;;;25.32;67.12;101061.84;5062179;28;19924;-72
2021/06/27 09:07:25;;;;;;;;;;;;;;;27.02;62.32;101059.94;5090527;28;19959;-72
2021/06/27 09:09:51;;;;;;;;;;;;;;;28.33;49.52;101059.06;5086573;28;19996;-72
2021/06/27 09:12:17;;;;;;;;;;;;;;;29.21;45.00;101064.22;5081974;28;20027;-72
2021/06/27 09:14:45;;;;;;;;;;;;;;;29.80;41.33;101060.56;5091047;28;20052;-72
2021/06/27 09:17:12;;;;;;;;;;;;;;;30.16;41.69;101062.25;5091259;28;19925;-72
2021/06/27 09:19:54;;;;;;;;;;;;;;;30.48;39.73;101056.22;5073313;28;19924;-72
2021/06/27 09:22:23;;;;;;;;;;;;;;;30.89;40.38;101044.91;5073221;28;19924;-72
2021/06/27 09:24:49;;;;;;;;;;;;;;;31.48;38.16;101047.31;5091533;28;19924;-72
2021/06/27 09:27:16;;;;;;;;;;;;;;;31.69;38.30;101044.84;5081777;28;19974;-72
2021/06/27 09:29:42;;;;;;;;;;;;;;;32.06;36.67;101052.63;5071058;28;20446;-72
2021/06/27 09:32:14;;;;;;;;;;;;;;;31.79;35.84;101047.78;5075784;28;19928;-72
2021/06/27 09:34:42;;;;;;;;;;;;;;;32.36;35.18;101040.09;5080215;28;19928;-72
2021/06/27 09:37:08;;;;;;;;;;;;;;;32.17;34.17;101036.78;5090374;28;19924;-72
2021/06/27 09:39:36;;;;;;;;;;;;;;;31.64;34.61;101037.22;5091360;28;20448;-72
2021/06/27 09:42:04;;;;;;;;;;;;;;;30.69;36.80;101029.44;5077341;28;19954;-72
2021/06/27 09:44:31;;;;;;;;;;;;;;;31.03;34.96;101032.28;5071128;28;19930;-69
2021/06/27 09:46:57;;;;;;;;;;;;;;;31.09;35.04;101022.00;5070988;28;19928;-72
2021/06/27 09:49:29;;;;;;;;;;;;;;;30.95;35.51;101029.03;5070825;28;19966;-72
2021/06/27 09:51:56;;;;;;;;;;;;;;;30.72;37.00;101019.69;5071118;28;19932;-72
2021/06/27 09:54:23;;;;;;;;;;;;;;;30.26;40.04;101024.38;5088563;28;19928;-72
2021/06/27 09:56:51;;;;;;;;;;;;;;;29.34;40.11;101024.88;5072914;28;20045;-72
2021/06/27 09:59:18;;;;;;;;;;;;;;;29.41;42.20;101013.59;5091055;28;20015;-72
2021/06/27 10:01:45;;;;;;;;;;;;;;;30.63;38.25;101018.41;5090752;28;20383;-72
2021/06/27 10:04:12;;;;;;;;;;;;;;;31.53;35.94;101019.31;5090547;28;20279;-72
2021/06/27 10:06:48;;;;;;;;;;;;;;;31.65;34.64;101012.81;5063716;28;19936;-70
2021/06/27 10:09:15;;;;;;;;;;;;;;;30.48;35.05;101017.00;5089919;28;19989;-72
2021/06/27 10:11:57;;;;;;;;;;;;;;;31.25;34.72;101013.88;5089866;28;19924;-72
2021/06/27 10:14:23;;;;;;;;;;;;;;;31.51;33.48;101018.75;5089275;28;19924;-72
2021/06/27 10:16:52;;;;;;;;;;;;;;;31.96;32.29;101013.19;5092818;28;19956;-71
2021/06/27 10:19:19;;;;;;;;;;;;;;;31.86;32.65;101017.56;5094217;28;19949;-72
2021/06/27 10:21:45;;;;;;;;;;;;;;;31.28;35.92;101013.34;5094184;28;20038;-72
2021/06/27 10:24:12;;;;;;;;;;;;;;;30.30;36.60;101008.78;5094445;28;20000;-72
2021/06/27 10:26:38;;;;;;;;;;;;;;;27.86;39.91;101022.47;5093813;28;20200;-71
2021/06/27 10:29:05;;;;;;;;;;;;;;;27.91;43.55;101017.06;5093723;28;19924;-72
2021/06/27 10:31:32;;;;;;;;;;;;;;;29.57;41.20;101017.59;5090829;28;20020;-72
2021/06/27 10:33:58;;;;;;;;;;;;;;;30.02;39.74;101008.50;5085305;28;19973;-71
2021/06/27 10:36:34;;;;;;;;;;;;;;;30.30;39.31;101015.22;5090113;28;19924;-72
2021/06/27 10:39:03;;;;;;;;;;;;;;;31.21;35.80;101014.38;5093854;28;19924;-71
2021/06/27 10:41:48;;;;;;;;;;;;;;;32.40;34.20;101018.81;5090878;28;19932;-72
2021/06/27 10:44:16;;;;;;;;;;;;;;;33.31;32.92;101017.16;5085504;28;19928;-71
2021/06/27 10:46:44;;;;;;;;;;;;;;;34.02;31.19;101015.00;5065023;28;19984;-71
2021/06/27 10:49:25;;;;;;;;;;;;;;;33.88;29.81;101012.72;5078191;28;20402;-71
2021/06/27 10:51:59;;;;;;;;;;;;;;;34.29;29.20;101003.56;5087452;28;19924;-71
2021/06/27 10:54:25;;;;;;;;;;;;;;;32.04;31.46;100999.56;5093936;28;20132;-72
2021/06/27 10:56:52;;;;;;;;;;;;;;;31.84;32.87;100999.31;5083808;28;19968;-72
2021/06/27 10:59:37;;;;;;;;;;;;;;;32.31;33.00;101003.53;5088532;28;19935;-72
2021/06/27 11:02:16;;;;;;;;;;;;;;;31.13;34.28;101012.00;5089836;28;19924;-71
2021/06/27 11:04:43;;;;;;;;;;;;;;;29.82;35.31;101006.09;5083767;28;19925;-71
2021/06/27 11:07:29;;;;;;;;;;;;;;;29.23;37.84;101000.53;5090879;28;19924;-72
2021/06/27 11:10:17;;;;;;;;;;;;;;;28.70;37.67;100997.56;5073887;28;19978;-71
2021/06/27 11:13:01;;;;;;;;;;;;;;;28.20;39.37;101004.25;5068783;28;19975;-72
2021/06/27 11:15:29;;;;;;;;;;;;;;;28.65;39.62;100999.34;5090610;28;19978;-72
2021/06/27 11:17:57;;;;;;;;;;;;;;;29.43;36.30;100993.75;5092848;28;19924;-73
2021/06/27 11:20:24;;;;;;;;;;;;;;;29.76;34.73;100992.25;5091563;28;19928;-71
2021/06/27 11:22:51;;;;;;;;;;;;;;;30.51;33.67;100984.84;5084849;28;19970;-71
2021/06/27 11:25:33;;;;;;;;;;;;;;;31.59;32.15;100988.53;5092663;28;19924;-72
2021/06/27 11:28:00;;;;;;;;;;;;;;;31.48;31.78;100991.22;5092203;28;19977;-72
2021/06/27 11:30:29;;;;;;;;;;;;;;;30.58;31.78;100979.09;5091102;28;19971;-72
2021/06/27 11:33:13;;;;;;;;;;;;;;;30.11;34.86;100982.94;5089927;28;19931;-72
2021/06/27 11:35:41;;;;;;;;;;;;;;;29.50;36.78;100989.72;5086169;28;20405;-72
2021/06/27 11:38:09;;;;;;;;;;;;;;;28.08;38.74;100983.84;5054715;28;19928;-72
2021/06/27 11:40:48;;;;;;;;;;;;;;;27.58;40.93;100990.44;5079733;28;19924;-73
2021/06/27 11:43:15;;;;;;;;;;;;;;;27.86;40.72;100989.00;5092295;28;19951;-72
2021/06/27 11:45:43;;;;;;;;;;;;;;;28.26;39.93;100979.28;5074368;28;19986;-72
2021/06/27 11:48:11;;;;;;;;;;;;;;;29.49;39.42;100982.44;5092196;28;19928;-72
2021/06/27 11:50:38;;;;;;;;;;;;;;;30.95;35.10;100982.25;5092928;28;19993;-72
2021/06/27 11:53:06;;;;;;;;;;;;;;;31.91;34.29;100977.53;5092627;28;19932;-71
2021/06/27 11:55:33;;;;;;;;;;;;;;;32.73;33.44;100971.13;5093053;28;20023;-71
2021/06/27 11:57:59;;;;;;;;;;;;;;;33.15;31.72;100973.13;5092298;28;19928;-71
2021/06/27 12:00:32;;;;;;;;;;;;;;;32.34;33.32;100977.75;5090851;28;20360;-72
2021/06/27 12:03:02;;;;;;;;;;;;;;;31.27;33.50;100978.84;5089680;28;19934;-72
2021/06/27 12:05:30;;;;;;;;;;;;;;;30.36;34.12;100974.19;5092587;28;20302;-72
2021/06/27 12:07:56;;;;;;;;;;;;;;;29.70;35.03;100972.56;5092287;28;19924;-71
2021/06/27 12:10:23;;;;;;;;;;;;;;;28.90;37.72;100971.22;5092326;28;19977;-72
2021/06/27 12:12:51;;;;;;;;;;;;;;;27.98;40.83;100973.22;5092571;28;19977;-72
2021/06/27 12:15:28;;;;;;;;;;;;;;;27.81;44.34;100978.56;5092313;28;20000;-72
2021/06/27 12:17:57;;;;;;;;;;;;;;;28.10;43.73;100969.63;5092236;28;20018;-72
2021/06/27 12:20:23;;;;;;;;;;;;;;;29.52;39.60;100970.78;5092265;28;19997;-72
2021/06/27 12:22:52;;;;;;;;;;;;;;;31.17;37.64;100959.06;5092175;28;19997;-72
2021/06/27 12:25:23;;;;;;;;;;;;;;;31.93;34.86;100955.63;5092187;28;19931;-72
2021/06/27 12:27:50;;;;;;;;;;;;;;;30.91;35.97;100952.19;5073866;28;19924;-72
2021/06/27 12:30:17;;;;;;;;;;;;;;;29.79;37.05;100953.44;5091905;28;19967;-71
2021/06/27 12:32:58;;;;;;;;;;;;;;;29.82;38.13;100949.31;5092184;28;20390;-72